createdAt,value
2018-08-11T00:02:19.766Z,19.90
2018-08-11T00:04:48.390Z,19.90
2018-08-11T00:07:17.106Z,19.80
2018-08-11T00:09:45.840Z,19.70
2018-08-11T00:12:14.563Z,19.70
2018-08-11T00:14:43.253Z,19.60
2018-08-11T00:17:12.061Z,19.70
2018-08-11T00:19:40.818Z,19.70
2018-08-11T00:22:09.507Z,19.60
2018-08-11T00:24:38.178Z,19.60
2018-08-11T00:27:06.941Z,19.60
2018-08-11T00:29:35.754Z,19.70
2018-08-11T00:32:04.686Z,19.70
2018-08-11T00:34:33.327Z,19.60
2018-08-11T00:37:02.053Z,19.60
2018-08-11T00:39:30.950Z,19.60
2018-08-11T00:41:59.675Z,19.60
2018-08-11T00:44:28.431Z,19.50
2018-08-11T00:46:57.280Z,19.50
2018-08-11T00:49:25.969Z,19.40
2018-08-11T00:51:54.633Z,19.40
2018-08-11T00:54:23.311Z,19.40
2018-08-11T00:56:52.086Z,19.50
2018-08-11T00:59:20.841Z,19.50
2018-08-11T01:01:49.600Z,19.50
2018-08-11T01:04:18.273Z,19.40
2018-08-11T01:06:47.134Z,19.20
2018-08-11T01:09:15.830Z,19.10
2018-08-11T01:11:44.597Z,19.00
2018-08-11T01:14:13.292Z,19.20
2018-08-11T01:16:42.003Z,19.20
2018-08-11T01:19:10.735Z,19.20
2018-08-11T01:21:39.526Z,19.20
2018-08-11T01:24:08.288Z,19.10
2018-08-11T01:26:37.038Z,19.00
2018-08-11T01:29:06.373Z,18.90
2018-08-11T01:31:35.032Z,18.90
2018-08-11T01:34:03.743Z,18.80
2018-08-11T01:36:32.406Z,18.80
2018-08-11T01:39:01.114Z,18.80
2018-08-11T01:41:29.795Z,18.80
2018-08-11T01:43:59.214Z,18.90
2018-08-11T01:46:27.891Z,18.90
2018-08-11T01:48:56.598Z,18.90
2018-08-11T01:51:25.418Z,19.00
2018-08-11T01:53:54.128Z,19.00
2018-08-11T01:56:22.859Z,19.10
2018-08-11T01:58:51.669Z,19.00
2018-08-11T02:01:20.483Z,18.90
2018-08-11T02:03:49.135Z,18.90
2018-08-11T02:06:17.874Z,18.80
2018-08-11T02:08:46.593Z,18.90
2018-08-11T02:11:15.282Z,18.90
2018-08-11T02:13:44.016Z,18.90
2018-08-11T02:16:12.749Z,19.00
2018-08-11T02:18:41.531Z,19.00
2018-08-11T02:21:10.246Z,18.90
2018-08-11T02:23:38.925Z,18.90
2018-08-11T02:26:07.642Z,18.80
2018-08-11T02:28:36.368Z,18.80
2018-08-11T02:31:05.462Z,18.70
2018-08-11T02:33:34.124Z,18.60
2018-08-11T02:36:02.808Z,18.60
2018-08-11T02:38:31.521Z,18.50
2018-08-11T02:41:00.196Z,18.40
2018-08-11T02:43:29.029Z,18.40
2018-08-11T02:45:57.664Z,18.40
2018-08-11T02:48:26.388Z,18.30
2018-08-11T02:50:55.116Z,18.20
2018-08-11T02:53:23.843Z,18.10
2018-08-11T02:55:52.536Z,18.00
2018-08-11T02:58:21.238Z,18.00
2018-08-11T03:00:50.171Z,18.10
2018-08-11T03:03:18.931Z,18.00
2018-08-11T03:05:47.615Z,18.00
2018-08-11T03:08:16.297Z,18.00
2018-08-11T03:10:45.013Z,18.00
2018-08-11T03:13:13.742Z,18.00
2018-08-11T03:15:42.516Z,18.00
2018-08-11T03:18:11.246Z,17.90
2018-08-11T03:20:40.009Z,17.90
2018-08-11T03:23:08.882Z,17.90
2018-08-11T03:25:37.643Z,17.90
2018-08-11T03:28:06.709Z,18.00
2018-08-11T03:30:35.379Z,18.00
2018-08-11T03:33:04.107Z,18.00
2018-08-11T03:35:32.829Z,18.00
2018-08-11T03:38:01.904Z,17.90
2018-08-11T03:40:30.608Z,17.80
2018-08-11T03:42:59.358Z,17.70
2018-08-11T03:45:27.996Z,17.60
2018-08-11T03:47:57.163Z,17.70
2018-08-11T03:50:25.893Z,17.70
2018-08-11T03:52:54.573Z,17.70
2018-08-11T03:55:23.243Z,17.70
2018-08-11T03:57:51.892Z,17.70
2018-08-11T04:00:20.578Z,17.70
2018-08-11T04:02:49.265Z,17.70
2018-08-11T04:05:17.985Z,17.60
2018-08-11T04:07:46.658Z,17.50
2018-08-11T04:10:15.295Z,17.50
2018-08-11T04:12:43.937Z,17.40
2018-08-11T04:15:12.598Z,17.30
2018-08-11T04:17:41.663Z,17.30
2018-08-11T04:20:12.185Z,17.30
2018-08-11T04:22:40.874Z,17.30
2018-08-11T04:25:09.885Z,17.30
2018-08-11T04:27:38.643Z,17.30
2018-08-11T04:30:09.086Z,17.20
2018-08-11T04:32:37.828Z,17.20
2018-08-11T04:35:06.559Z,17.30
2018-08-11T04:37:35.290Z,17.30
2018-08-11T04:40:04.737Z,17.40
2018-08-11T04:42:33.418Z,17.50
2018-08-11T04:45:02.140Z,17.80
2018-08-11T04:47:30.898Z,17.90
2018-08-11T04:49:59.664Z,18.00
2018-08-11T04:52:28.350Z,18.00
2018-08-11T04:54:57.075Z,18.10
2018-08-11T04:57:26.010Z,18.20
2018-08-11T04:59:54.638Z,18.40
2018-08-11T05:02:23.275Z,18.60
2018-08-11T05:04:51.923Z,18.70
2018-08-11T05:07:20.675Z,18.90
2018-08-11T05:09:49.698Z,19.20
2018-08-11T05:12:18.393Z,19.30
2018-08-11T05:14:47.090Z,19.40
2018-08-11T05:17:15.816Z,19.50
2018-08-11T05:19:44.500Z,19.60
2018-08-11T05:22:13.170Z,19.80
2018-08-11T05:24:41.978Z,20.00
2018-08-11T05:27:10.760Z,20.10
2018-08-11T05:29:39.466Z,20.20
2018-08-11T05:32:08.262Z,20.40
2018-08-11T05:34:36.932Z,20.40
2018-08-11T05:37:06.133Z,20.30
2018-08-11T05:39:34.922Z,20.10
2018-08-11T05:42:03.823Z,20.10
2018-08-11T05:44:32.555Z,20.30
2018-08-11T05:47:01.353Z,20.30
2018-08-11T05:49:30.733Z,20.30
2018-08-11T05:51:59.404Z,20.40
2018-08-11T05:54:28.095Z,20.60
2018-08-11T05:56:56.781Z,21.10
2018-08-11T05:59:25.465Z,21.40
2018-08-11T06:01:54.172Z,21.50
2018-08-11T06:04:22.841Z,21.80
2018-08-11T06:06:51.574Z,22.00
2018-08-11T06:09:20.245Z,22.60
2018-08-11T06:11:48.925Z,22.90
2018-08-11T06:14:17.548Z,23.20
2018-08-11T06:16:46.224Z,23.50
2018-08-11T06:19:14.870Z,23.80
2018-08-11T06:21:43.648Z,23.50
2018-08-11T06:24:12.399Z,23.20
2018-08-11T06:26:40.998Z,23.20
2018-08-11T06:29:09.701Z,23.10
2018-08-11T06:31:38.458Z,23.40
2018-08-11T06:34:07.194Z,23.60
2018-08-11T06:36:35.967Z,24.00
2018-08-11T06:39:08.416Z,24.50
2018-08-11T06:41:37.131Z,24.80
2018-08-11T06:44:05.736Z,25.10
2018-08-11T06:46:34.455Z,25.30
2018-08-11T06:49:03.091Z,25.20
2018-08-11T06:51:31.883Z,24.80
2018-08-11T06:54:00.627Z,24.60
2018-08-11T06:56:29.267Z,24.80
2018-08-11T06:58:57.963Z,24.90
2018-08-11T07:01:26.610Z,25.30
2018-08-11T07:03:55.277Z,25.70
2018-08-11T07:06:24.003Z,26.10
2018-08-11T07:08:52.696Z,26.20
2018-08-11T07:11:21.416Z,26.50
2018-08-11T07:13:50.151Z,26.80
2018-08-11T07:16:18.864Z,26.90
2018-08-11T07:18:49.176Z,27.10
2018-08-11T07:21:17.893Z,27.10
2018-08-11T07:23:46.511Z,26.90
2018-08-11T07:26:15.263Z,26.90
2018-08-11T07:28:43.908Z,27.10
2018-08-11T07:31:12.666Z,27.10
2018-08-11T07:33:41.530Z,27.40
2018-08-11T07:36:10.344Z,27.40
2018-08-11T07:38:39.007Z,27.80
2018-08-11T07:41:07.730Z,28.40
2018-08-11T07:43:37.137Z,28.20
2018-08-11T07:46:05.881Z,28.80
2018-08-11T07:48:34.652Z,29.20
2018-08-11T07:51:04.168Z,29.40
2018-08-11T07:53:32.925Z,29.50
2018-08-11T07:56:01.782Z,29.90
2018-08-11T07:58:30.459Z,30.00
2018-08-11T08:00:59.143Z,29.90
2018-08-11T08:03:27.891Z,30.00
2018-08-11T08:05:56.561Z,30.30
2018-08-11T08:08:25.290Z,30.60
2018-08-11T08:10:53.958Z,30.90
2018-08-11T08:13:22.664Z,30.80
2018-08-11T08:15:51.348Z,30.50
2018-08-11T08:18:20.103Z,30.80
2018-08-11T08:20:49.387Z,31.10
2018-08-11T08:23:19.093Z,31.20
2018-08-11T08:25:47.946Z,31.30
2018-08-11T08:28:16.736Z,31.30
2018-08-11T08:30:45.731Z,31.40
2018-08-11T08:33:14.427Z,31.60
2018-08-11T08:35:43.978Z,31.80
2018-08-11T08:38:12.944Z,32.30
2018-08-11T08:40:41.744Z,32.40
2018-08-11T08:43:11.014Z,32.50
2018-08-11T08:45:40.942Z,32.50
2018-08-11T08:48:09.724Z,32.60
2018-08-11T08:50:38.397Z,32.70
2018-08-11T08:53:07.401Z,32.80
2018-08-11T08:55:36.179Z,33.10
2018-08-11T08:58:05.088Z,33.30
2018-08-11T09:00:34.773Z,33.10
2018-08-11T09:03:03.524Z,33.30
2018-08-11T09:05:32.807Z,33.30
2018-08-11T09:08:01.594Z,33.50
2018-08-11T09:10:30.324Z,33.70
2018-08-11T09:12:59.087Z,33.50
2018-08-11T09:15:27.901Z,33.50
2018-08-11T09:17:56.584Z,33.90
2018-08-11T09:20:25.292Z,34.10
2018-08-11T09:22:54.114Z,34.00
2018-08-11T09:25:22.985Z,33.80
2018-08-11T09:27:51.777Z,33.70
2018-08-11T09:30:20.551Z,33.70
2018-08-11T09:32:49.273Z,33.80
2018-08-11T09:35:18.998Z,33.60
2018-08-11T09:37:47.739Z,34.00
2018-08-11T09:40:16.690Z,34.50
2018-08-11T09:42:45.445Z,34.90
2018-08-11T09:45:15.485Z,35.20
2018-08-11T09:47:44.313Z,35.30
2018-08-11T09:50:13.288Z,35.10
2018-08-11T09:52:42.573Z,35.00
2018-08-11T09:55:11.308Z,35.20
2018-08-11T09:57:40.113Z,35.40
2018-08-11T10:00:09.485Z,35.20
2018-08-11T10:02:38.201Z,35.30
2018-08-11T10:05:07.764Z,35.40
2018-08-11T10:07:36.598Z,35.80
2018-08-11T10:10:05.827Z,35.90
2018-08-11T10:12:34.628Z,35.40
2018-08-11T10:15:03.358Z,35.00
2018-08-11T10:17:32.112Z,35.40
2018-08-11T10:20:00.814Z,35.90
2018-08-11T10:22:29.526Z,36.30
2018-08-11T10:24:58.245Z,36.50
2018-08-11T10:27:28.006Z,36.70
2018-08-11T10:29:56.715Z,36.70
2018-08-11T10:32:25.533Z,36.90
2018-08-11T10:34:54.440Z,36.80
2018-08-11T10:37:23.156Z,36.70
2018-08-11T10:39:53.669Z,36.80
2018-08-11T10:42:22.407Z,36.60
2018-08-11T10:44:51.124Z,36.70
2018-08-11T10:47:19.894Z,37.00
2018-08-11T10:49:48.539Z,37.20
2018-08-11T10:52:18.945Z,37.10
2018-08-11T10:54:47.851Z,37.40
2018-08-11T10:57:16.624Z,37.50
2018-08-11T10:59:45.406Z,37.30
2018-08-11T11:02:14.250Z,37.30
2018-08-11T11:04:43.121Z,37.60
2018-08-11T11:07:11.816Z,37.70
2018-08-11T11:09:40.617Z,37.40
2018-08-11T11:12:09.516Z,37.60
2018-08-11T11:14:38.329Z,37.50
2018-08-11T11:17:07.128Z,36.70
2018-08-11T11:19:36.674Z,36.90
2018-08-11T11:22:05.383Z,36.80
2018-08-11T11:24:34.104Z,37.40
2018-08-11T11:27:02.876Z,37.90
2018-08-11T11:29:31.534Z,37.90
2018-08-11T11:32:00.239Z,37.60
2018-08-11T11:34:28.887Z,37.90
2018-08-11T11:36:57.565Z,38.20
2018-08-11T11:39:26.306Z,38.40
2018-08-11T11:41:55.049Z,38.70
2018-08-11T11:44:23.736Z,38.90
2018-08-11T11:46:52.396Z,39.40
2018-08-11T11:49:21.099Z,39.40
2018-08-11T11:51:49.809Z,38.90
2018-08-11T11:54:18.770Z,38.70
2018-08-11T11:56:47.499Z,38.60
2018-08-11T11:59:16.130Z,38.70
2018-08-11T12:01:44.876Z,38.80
2018-08-11T12:04:13.833Z,38.90
2018-08-11T12:06:42.592Z,38.80
2018-08-11T12:09:11.638Z,38.60
2018-08-11T12:11:40.266Z,38.30
2018-08-11T12:14:09.021Z,38.20
2018-08-11T12:16:38.008Z,38.70
2018-08-11T12:19:06.745Z,38.30
2018-08-11T12:21:35.487Z,38.40
2018-08-11T12:24:04.576Z,38.50
2018-08-11T12:26:33.313Z,38.70
2018-08-11T12:29:02.199Z,38.80
2018-08-11T12:31:30.922Z,39.20
2018-08-11T12:33:59.601Z,38.80
2018-08-11T12:36:28.523Z,38.80
2018-08-11T12:38:57.171Z,39.00
2018-08-11T12:41:26.683Z,38.80
2018-08-11T12:43:55.711Z,38.70
2018-08-11T12:46:24.445Z,38.80
2018-08-11T12:48:54.696Z,39.10
2018-08-11T12:51:23.431Z,38.80
2018-08-11T12:53:52.161Z,38.60
2018-08-11T12:56:21.081Z,38.90
2018-08-11T12:58:49.881Z,38.60
2018-08-11T13:01:18.679Z,38.50
2018-08-11T13:03:47.478Z,38.80
2018-08-11T13:06:16.376Z,39.00
2018-08-11T13:08:45.200Z,39.10
2018-08-11T13:11:14.195Z,39.50
2018-08-11T13:13:43.019Z,39.80
2018-08-11T13:16:11.773Z,39.70
2018-08-11T13:18:40.586Z,39.50
2018-08-11T13:21:09.257Z,39.40
2018-08-11T13:23:38.104Z,39.10
2018-08-11T13:26:08.301Z,38.60
2018-08-11T13:28:37.953Z,38.40
2018-08-11T13:31:07.035Z,38.50
2018-08-11T13:33:35.664Z,38.20
2018-08-11T13:36:04.379Z,38.20
2018-08-11T13:38:33.457Z,37.90
2018-08-11T13:41:02.160Z,38.20
2018-08-11T13:43:30.751Z,37.80
2018-08-11T13:46:00.666Z,37.50
2018-08-11T13:48:30.404Z,37.70
2018-08-11T13:50:59.532Z,37.90
2018-08-11T13:53:29.073Z,38.40
2018-08-11T13:55:57.857Z,39.00
2018-08-11T13:58:27.226Z,39.40
2018-08-11T14:00:55.913Z,39.30
2018-08-11T14:03:24.644Z,39.60
2018-08-11T14:05:53.504Z,39.70
2018-08-11T14:08:23.259Z,39.10
2018-08-11T14:10:52.201Z,39.40
2018-08-11T14:13:20.940Z,38.90
2018-08-11T14:15:49.684Z,38.90
2018-08-11T14:18:18.493Z,39.00
2018-08-11T14:20:47.151Z,38.90
2018-08-11T14:23:17.249Z,38.60
2018-08-11T14:25:46.008Z,37.70
2018-08-11T14:28:15.338Z,37.40
2018-08-11T14:30:43.974Z,37.70
2018-08-11T14:33:12.865Z,37.50
2018-08-11T14:35:41.534Z,36.50
2018-08-11T14:38:10.385Z,35.90
2018-08-11T14:40:39.516Z,36.20
2018-08-11T14:43:08.344Z,36.90
2018-08-11T14:45:37.068Z,37.30
2018-08-11T14:48:06.224Z,37.40
2018-08-11T14:50:35.133Z,37.80
2018-08-11T14:53:03.954Z,37.60
2018-08-11T14:55:33.145Z,37.30
2018-08-11T14:58:02.257Z,37.50
2018-08-11T15:00:30.999Z,37.90
2018-08-11T15:02:59.685Z,38.00
2018-08-11T15:05:29.180Z,37.80
2018-08-11T15:07:57.811Z,37.80
2018-08-11T15:10:26.468Z,38.10
2018-08-11T15:12:55.695Z,38.00
2018-08-11T15:15:24.531Z,37.90
2018-08-11T15:17:53.319Z,36.90
2018-08-11T15:20:22.685Z,36.00
2018-08-11T15:22:51.386Z,35.50
2018-08-11T15:25:21.258Z,35.50
2018-08-11T15:27:50.104Z,36.20
2018-08-11T15:30:18.882Z,36.80
2018-08-11T15:32:47.623Z,37.10
2018-08-11T15:35:16.334Z,37.90
2018-08-11T15:37:45.092Z,38.10
2018-08-11T15:40:13.789Z,37.80
2018-08-11T15:42:42.419Z,37.30
2018-08-11T15:45:11.153Z,36.30
2018-08-11T15:47:39.884Z,35.70
2018-08-11T15:50:08.612Z,35.50
2018-08-11T15:52:38.106Z,35.90
2018-08-11T15:55:07.091Z,36.30
2018-08-11T15:57:35.852Z,36.30
2018-08-11T16:00:05.914Z,36.10
2018-08-11T16:02:34.632Z,36.30
2018-08-11T16:05:03.556Z,36.10
2018-08-11T16:07:32.359Z,36.40
2018-08-11T16:10:01.147Z,36.40
2018-08-11T16:12:30.421Z,36.20
2018-08-11T16:14:59.284Z,36.20
2018-08-11T16:17:28.147Z,35.80
2018-08-11T16:19:56.894Z,36.00
2018-08-11T16:22:26.709Z,36.10
2018-08-11T16:24:55.381Z,36.10
2018-08-11T16:27:24.246Z,35.50
2018-08-11T16:29:53.027Z,35.30
2018-08-11T16:32:22.368Z,35.40
2018-08-11T16:34:51.110Z,35.20
2018-08-11T16:37:19.865Z,34.90
2018-08-11T16:39:48.594Z,34.90
2018-08-11T16:42:17.356Z,34.90
2018-08-11T16:44:46.092Z,34.60
2018-08-11T16:47:14.909Z,34.10
2018-08-11T16:49:44.285Z,33.50
2018-08-11T16:52:13.117Z,32.90
2018-08-11T16:54:41.863Z,32.50
2018-08-11T16:57:11.354Z,32.20
2018-08-11T16:59:40.149Z,32.00
2018-08-11T17:02:08.906Z,31.90
2018-08-11T17:04:37.654Z,31.70
2018-08-11T17:07:06.311Z,31.50
2018-08-11T17:09:35.124Z,31.40
2018-08-11T17:12:03.936Z,31.30
2018-08-11T17:14:32.644Z,31.10
2018-08-11T17:17:01.373Z,31.00
2018-08-11T17:19:30.111Z,30.90
2018-08-11T17:21:58.846Z,30.80
2018-08-11T17:24:27.843Z,30.70
2018-08-11T17:26:56.961Z,30.60
2018-08-11T17:29:26.701Z,30.50
2018-08-11T17:31:55.578Z,30.40
2018-08-11T17:34:24.928Z,30.20
2018-08-11T17:36:53.699Z,30.10
2018-08-11T17:39:22.509Z,30.00
2018-08-11T17:41:52.202Z,29.90
2018-08-11T17:44:20.899Z,29.80
2018-08-11T17:46:49.586Z,29.80
2018-08-11T17:49:18.254Z,29.70
2018-08-11T17:51:47.959Z,29.50
2018-08-11T17:54:16.598Z,29.40
2018-08-11T17:56:46.200Z,29.30
2018-08-11T17:59:15.585Z,29.10
2018-08-11T18:01:44.226Z,29.00
2018-08-11T18:04:12.873Z,28.80
2018-08-11T18:06:41.566Z,28.60
2018-08-11T18:09:11.166Z,28.50
2018-08-11T18:11:40.391Z,28.30
2018-08-11T18:14:09.433Z,28.30
2018-08-11T18:16:38.156Z,28.30
2018-08-11T18:19:06.954Z,28.10
2018-08-11T18:21:36.414Z,27.90
2018-08-11T18:24:05.286Z,27.80
2018-08-11T18:26:34.065Z,27.70
2018-08-11T18:29:02.925Z,27.60
2018-08-11T18:31:31.754Z,27.60
2018-08-11T18:34:00.576Z,27.50
2018-08-11T18:36:29.318Z,27.30
2018-08-11T18:38:58.061Z,27.30
2018-08-11T18:41:26.951Z,27.20
2018-08-11T18:43:56.324Z,27.10
2018-08-11T18:46:25.089Z,27.00
2018-08-11T18:48:53.789Z,26.80
2018-08-11T18:51:22.650Z,26.70
2018-08-11T18:53:51.321Z,26.60
2018-08-11T18:56:20.071Z,26.60
2018-08-11T18:58:48.823Z,26.50
2018-08-11T19:01:18.625Z,26.50
2018-08-11T19:03:48.018Z,26.40
2018-08-11T19:06:16.793Z,26.30
2018-08-11T19:08:45.568Z,26.30
2018-08-11T19:11:14.321Z,26.20
2018-08-11T19:13:43.076Z,26.00
2018-08-11T19:16:11.755Z,25.90
2018-08-11T19:18:40.491Z,25.80
2018-08-11T19:21:09.206Z,25.70
2018-08-11T19:23:38.558Z,25.60
2018-08-11T19:26:07.397Z,25.50
2018-08-11T19:28:36.538Z,25.60
2018-08-11T19:31:05.658Z,25.80
2018-08-11T19:33:34.673Z,26.00
2018-08-11T19:36:03.543Z,26.00
2018-08-11T19:38:32.371Z,26.10
2018-08-11T19:41:02.210Z,26.10
2018-08-11T19:43:31.178Z,26.10
2018-08-11T19:45:59.933Z,25.90
2018-08-11T19:48:28.983Z,25.80
2018-08-11T19:50:58.014Z,25.70
2018-08-11T19:53:26.854Z,25.40
2018-08-11T19:55:57.272Z,25.20
2018-08-11T19:58:26.105Z,25.10
2018-08-11T20:00:54.840Z,25.30
2018-08-11T20:03:23.618Z,25.40
2018-08-11T20:05:52.472Z,25.20
2018-08-11T20:08:21.218Z,25.00
2018-08-11T20:10:49.993Z,24.80
2018-08-11T20:13:19.306Z,24.60
2018-08-11T20:15:48.138Z,24.50
2018-08-11T20:18:16.892Z,24.40
2018-08-11T20:20:46.266Z,24.30
2018-08-11T20:23:15.001Z,24.20
2018-08-11T20:25:43.792Z,24.10
2018-08-11T20:28:14.893Z,24.20
2018-08-11T20:30:44.233Z,24.10
2018-08-11T20:33:13.293Z,24.10
2018-08-11T20:35:42.124Z,24.00
2018-08-11T20:38:11.168Z,24.20
2018-08-11T20:40:39.933Z,24.20
2018-08-11T20:43:08.688Z,24.30
2018-08-11T20:45:37.489Z,24.30
2018-08-11T20:48:07.269Z,24.30
2018-08-11T20:50:36.559Z,24.20
2018-08-11T20:53:05.511Z,24.30
2018-08-11T20:55:34.446Z,24.50
2018-08-11T20:58:03.208Z,24.70
2018-08-11T21:00:32.627Z,24.90
2018-08-11T21:03:01.351Z,24.90
2018-08-11T21:05:30.139Z,24.80
2018-08-11T21:07:58.973Z,24.60
2018-08-11T21:10:27.826Z,24.10
2018-08-11T21:12:56.546Z,23.70
2018-08-11T21:15:25.380Z,23.50
2018-08-11T21:17:54.073Z,23.30
2018-08-11T21:20:22.843Z,23.10
2018-08-11T21:22:51.600Z,22.90
2018-08-11T21:25:20.275Z,22.60
2018-08-11T21:27:48.998Z,22.30
2018-08-11T21:30:17.713Z,22.10
2018-08-11T21:32:46.482Z,22.00
2018-08-11T21:35:15.332Z,21.90
2018-08-11T21:37:44.358Z,21.80
2018-08-11T21:40:14.453Z,21.90
2018-08-11T21:42:44.178Z,21.80
2018-08-11T21:45:13.550Z,21.80
2018-08-11T21:47:42.566Z,21.70
2018-08-11T21:50:11.251Z,21.70
2018-08-11T21:52:40.178Z,21.70
2018-08-11T21:55:09.450Z,21.70
2018-08-11T21:57:38.508Z,21.80
2018-08-11T22:00:38.233Z,21.70
2018-08-11T22:03:08.481Z,21.60
2018-08-11T22:05:37.398Z,21.50
2018-08-11T22:08:06.121Z,21.60
2018-08-11T22:10:34.863Z,21.80
2018-08-11T22:13:03.566Z,22.30
2018-08-11T22:15:32.983Z,22.50
2018-08-11T22:18:02.380Z,22.40
2018-08-11T22:20:31.156Z,21.80
2018-08-11T22:23:00.676Z,21.40
2018-08-11T22:25:29.585Z,20.90
2018-08-11T22:27:58.503Z,20.60
2018-08-11T22:30:27.366Z,20.50
2018-08-11T22:32:56.220Z,20.50
2018-08-11T22:35:25.093Z,21.00
2018-08-11T22:37:53.915Z,21.50
2018-08-11T22:40:22.668Z,21.70
2018-08-11T22:42:51.340Z,21.70
2018-08-11T22:45:20.088Z,21.70
2018-08-11T22:47:48.840Z,21.30
2018-08-11T22:50:17.642Z,20.60
2018-08-11T22:52:46.678Z,20.00
2018-08-11T22:55:15.450Z,19.50
2018-08-11T22:57:44.261Z,19.20
2018-08-11T23:00:19.098Z,19.00
2018-08-11T23:02:47.954Z,19.10
2018-08-11T23:05:18.791Z,19.20
2018-08-11T23:07:47.662Z,19.40
2018-08-11T23:10:16.958Z,19.50
2018-08-11T23:12:46.419Z,19.40
2018-08-11T23:15:17.234Z,19.30
2018-08-11T23:17:48.127Z,19.20
2018-08-11T23:20:16.902Z,19.10
2018-08-11T23:22:45.701Z,19.30
2018-08-11T23:25:15.320Z,19.40
2018-08-11T23:27:44.079Z,19.40
2018-08-11T23:30:15.266Z,19.50
2018-08-11T23:32:44.131Z,19.60
2018-08-11T23:35:13.429Z,19.70
2018-08-11T23:37:42.384Z,19.70
2018-08-11T23:40:11.465Z,19.70
2018-08-11T23:42:40.638Z,19.70
2018-08-11T23:45:16.348Z,19.70
2018-08-11T23:47:45.764Z,19.70
2018-08-11T23:50:15.014Z,19.80
2018-08-11T23:52:44.365Z,19.80
2018-08-11T23:55:14.219Z,19.90
2018-08-11T23:57:42.930Z,19.90
